createdAt,value
2023-02-17T00:01:00.648Z,982.79
2023-02-17T00:06:00.579Z,982.81
2023-02-17T00:11:00.496Z,982.79
2023-02-17T00:16:00.502Z,982.73
2023-02-17T00:21:00.381Z,982.59
2023-02-17T00:26:00.368Z,982.56
2023-02-17T00:31:00.349Z,982.59
2023-02-17T00:36:00.203Z,982.48
2023-02-17T00:41:00.123Z,982.45
2023-02-17T00:46:00.054Z,982.55
2023-02-17T00:51:00.005Z,982.64
2023-02-17T00:55:59.928Z,982.61
2023-02-17T01:00:59.877Z,982.52
2023-02-17T01:05:59.845Z,982.57
2023-02-17T01:10:59.771Z,982.57
2023-02-17T01:15:59.737Z,982.52
2023-02-17T01:20:59.612Z,982.44
2023-02-17T01:25:59.567Z,982.48
2023-02-17T01:30:59.568Z,982.48
2023-02-17T01:35:59.454Z,982.42
2023-02-17T01:40:59.359Z,982.31
2023-02-17T01:45:59.306Z,982.20
2023-02-17T01:50:59.231Z,982.20
2023-02-17T01:55:59.166Z,982.12
2023-02-17T02:00:59.159Z,982.01
2023-02-17T02:05:59.056Z,981.95
2023-02-17T02:10:58.989Z,981.78
2023-02-17T02:15:59.147Z,981.72
2023-02-17T02:20:58.869Z,981.67
2023-02-17T02:25:58.796Z,981.62
2023-02-17T02:30:58.779Z,981.57
2023-02-17T02:35:58.708Z,981.50
2023-02-17T02:40:58.656Z,981.54
2023-02-17T02:45:58.600Z,981.51
2023-02-17T02:50:58.528Z,981.60
2023-02-17T02:55:58.447Z,981.52
2023-02-17T03:00:58.425Z,981.55
2023-02-17T03:05:58.344Z,981.48
2023-02-17T03:10:58.308Z,981.46
2023-02-17T03:15:58.215Z,981.40
2023-02-17T03:20:58.132Z,981.38
2023-02-17T03:25:58.075Z,981.36
2023-02-17T03:30:58.013Z,981.36
2023-02-17T03:35:57.962Z,981.32
2023-02-17T03:40:57.938Z,981.37
2023-02-17T03:45:57.894Z,981.35
2023-02-17T03:50:58.112Z,981.41
2023-02-17T03:55:57.715Z,981.40
2023-02-17T04:00:57.635Z,981.44
2023-02-17T04:05:57.611Z,981.51
2023-02-17T04:10:57.516Z,981.47
2023-02-17T04:15:57.489Z,981.38
2023-02-17T04:20:57.408Z,981.37
2023-02-17T04:25:57.370Z,981.50
2023-02-17T04:30:57.331Z,981.49
2023-02-17T04:35:57.219Z,981.63
2023-02-17T04:40:57.203Z,981.73
2023-02-17T04:45:57.162Z,981.47
2023-02-17T04:50:57.042Z,981.40
2023-02-17T04:55:56.970Z,981.37
2023-02-17T05:00:56.921Z,981.35
2023-02-17T05:05:56.838Z,981.35
2023-02-17T05:10:56.823Z,981.38
2023-02-17T05:15:56.760Z,981.34
2023-02-17T05:20:56.661Z,981.29
2023-02-17T05:25:56.606Z,981.22
2023-02-17T05:30:56.579Z,981.16
2023-02-17T05:35:56.502Z,981.13
2023-02-17T05:40:56.441Z,981.06
2023-02-17T05:45:56.383Z,980.99
2023-02-17T05:50:56.299Z,980.95
2023-02-17T05:55:56.241Z,981.08
2023-02-17T06:00:56.155Z,981.10
2023-02-17T06:05:56.124Z,981.08
2023-02-17T06:10:56.051Z,981.06
2023-02-17T06:15:56.008Z,981.00
2023-02-17T06:20:55.902Z,980.93
2023-02-17T06:25:55.876Z,981.00
2023-02-17T06:30:55.781Z,980.96
2023-02-17T06:35:55.748Z,980.85
2023-02-17T06:40:55.719Z,980.81
2023-02-17T06:45:55.635Z,980.75
2023-02-17T06:50:55.531Z,980.86
2023-02-17T06:55:55.445Z,980.77
2023-02-17T07:00:55.414Z,980.84
2023-02-17T07:05:55.343Z,980.74
2023-02-17T07:10:55.281Z,980.86
2023-02-17T07:15:55.249Z,980.94
2023-02-17T07:20:55.159Z,981.04
2023-02-17T07:25:55.093Z,981.09
2023-02-17T07:30:55.060Z,981.08
2023-02-17T07:35:55.731Z,981.04
2023-02-17T07:40:54.915Z,981.12
2023-02-17T07:45:54.980Z,981.04
2023-02-17T07:50:54.773Z,981.06
2023-02-17T07:55:54.699Z,980.97
2023-02-17T08:00:54.667Z,980.94
2023-02-17T08:05:54.583Z,980.94
2023-02-17T08:10:54.541Z,980.91
2023-02-17T08:15:54.495Z,980.90
2023-02-17T08:20:54.399Z,980.96
2023-02-17T08:25:54.323Z,980.93
2023-02-17T08:30:54.390Z,980.99
2023-02-17T08:35:54.234Z,980.89
2023-02-17T08:40:54.152Z,980.88
2023-02-17T08:45:54.099Z,980.94
2023-02-17T08:50:54.048Z,980.96
2023-02-17T08:55:54.009Z,981.00
2023-02-17T09:00:53.917Z,980.97
2023-02-17T09:05:53.830Z,980.91
2023-02-17T09:10:53.753Z,980.95
2023-02-17T09:15:53.806Z,980.96
2023-02-17T09:20:53.708Z,980.81
2023-02-17T09:25:53.588Z,980.80
2023-02-17T09:30:53.589Z,980.79
2023-02-17T09:35:53.489Z,980.78
2023-02-17T09:40:53.412Z,980.94
2023-02-17T09:45:53.354Z,980.82
2023-02-17T09:50:53.253Z,980.69
2023-02-17T09:55:53.202Z,980.75
2023-02-17T10:00:53.164Z,980.80
2023-02-17T10:05:53.084Z,980.76
2023-02-17T10:10:53.025Z,980.81
2023-02-17T10:15:52.991Z,980.80
2023-02-17T10:20:52.951Z,980.80
2023-02-17T10:25:52.820Z,980.82
2023-02-17T10:30:52.929Z,980.77
2023-02-17T10:35:52.750Z,980.80
2023-02-17T10:40:52.628Z,980.74
2023-02-17T10:45:52.588Z,980.65
2023-02-17T10:50:52.489Z,980.54
2023-02-17T10:55:52.435Z,980.41
2023-02-17T11:00:52.418Z,980.46
2023-02-17T11:05:52.322Z,980.40
2023-02-17T11:10:52.221Z,980.40
2023-02-17T11:15:52.189Z,980.40
2023-02-17T11:20:52.135Z,980.38
2023-02-17T11:25:52.065Z,980.36
2023-02-17T11:30:52.038Z,980.35
2023-02-17T11:35:51.916Z,980.22
2023-02-17T11:40:51.858Z,980.18
2023-02-17T11:45:51.851Z,980.05
2023-02-17T11:50:51.740Z,980.00
2023-02-17T11:55:51.661Z,979.98
2023-02-17T12:00:51.597Z,980.03
2023-02-17T12:05:51.546Z,980.06
2023-02-17T12:10:51.472Z,979.97
2023-02-17T12:15:51.410Z,979.83
2023-02-17T12:20:51.351Z,979.78
2023-02-17T12:25:51.265Z,979.80
2023-02-17T12:30:51.418Z,979.80
2023-02-17T12:35:51.210Z,979.79
2023-02-17T12:40:51.076Z,979.70
2023-02-17T12:45:51.410Z,979.65
2023-02-17T12:50:50.971Z,979.61
2023-02-17T12:55:50.909Z,979.63
2023-02-17T13:00:50.823Z,979.57
2023-02-17T13:05:50.770Z,979.60
2023-02-17T13:10:50.713Z,979.64
2023-02-17T13:15:50.665Z,979.72
2023-02-17T13:20:50.582Z,979.81
2023-02-17T13:25:50.519Z,979.82
2023-02-17T13:30:50.559Z,979.90
2023-02-17T13:35:50.380Z,979.96
2023-02-17T13:40:50.308Z,980.03
2023-02-17T13:45:50.341Z,979.95
2023-02-17T13:50:50.217Z,980.00
2023-02-17T13:55:50.113Z,979.94
2023-02-17T14:00:50.081Z,979.96
2023-02-17T14:05:49.990Z,979.95
2023-02-17T14:10:49.948Z,979.96
2023-02-17T14:15:49.901Z,980.06
2023-02-17T14:20:49.818Z,979.94
2023-02-17T14:25:49.746Z,979.79
2023-02-17T14:30:49.897Z,979.61
2023-02-17T14:35:49.626Z,979.52
2023-02-17T14:40:49.536Z,979.49
2023-02-17T14:45:49.482Z,979.55
2023-02-17T14:50:49.431Z,979.50
2023-02-17T14:55:49.363Z,979.43
2023-02-17T15:00:49.300Z,979.38
2023-02-17T15:05:49.254Z,979.36
2023-02-17T15:10:49.167Z,979.29
2023-02-17T15:15:49.169Z,979.12
2023-02-17T15:20:49.075Z,979.15
2023-02-17T15:25:49.001Z,979.22
2023-02-17T15:30:48.939Z,979.12
2023-02-17T15:35:48.854Z,979.05
2023-02-17T15:40:48.784Z,978.98
2023-02-17T15:45:48.728Z,978.93
2023-02-17T15:50:48.674Z,978.84
2023-02-17T15:55:48.608Z,978.80
2023-02-17T16:00:48.603Z,978.84
2023-02-17T16:05:48.487Z,978.89
2023-02-17T16:10:48.395Z,978.94
2023-02-17T16:15:48.404Z,978.94
2023-02-17T16:20:48.284Z,978.99
2023-02-17T16:25:48.224Z,978.99
2023-02-17T16:30:48.146Z,979.05
2023-02-17T16:35:48.088Z,979.06
2023-02-17T16:40:48.022Z,978.99
2023-02-17T16:45:47.968Z,979.15
2023-02-17T16:50:47.894Z,979.16
2023-02-17T16:55:47.814Z,979.24
2023-02-17T17:00:47.779Z,979.40
2023-02-17T17:05:47.696Z,979.31
2023-02-17T17:10:47.620Z,979.26
2023-02-17T17:15:47.564Z,979.19
2023-02-17T17:20:47.512Z,979.01
2023-02-17T17:25:47.455Z,978.93
2023-02-17T17:30:47.377Z,979.02
2023-02-17T17:35:47.314Z,979.06
2023-02-17T17:40:47.242Z,979.15
2023-02-17T17:45:47.247Z,979.14
2023-02-17T17:50:47.145Z,979.11
2023-02-17T17:55:47.066Z,979.10
2023-02-17T18:00:47.003Z,978.96
2023-02-17T18:05:46.952Z,978.85
2023-02-17T18:10:46.857Z,978.84
2023-02-17T18:15:46.850Z,978.85
2023-02-17T18:20:46.777Z,978.85
2023-02-17T18:25:46.719Z,979.00
2023-02-17T18:30:46.763Z,978.92
2023-02-17T18:35:46.558Z,978.95
2023-02-17T18:40:46.490Z,979.05
2023-02-17T18:45:46.438Z,979.13
2023-02-17T18:50:46.395Z,979.08
2023-02-17T18:55:46.332Z,979.07
2023-02-17T19:00:46.257Z,979.21
2023-02-17T19:05:46.182Z,979.38
2023-02-17T19:10:46.136Z,979.45
2023-02-17T19:15:46.091Z,979.41
2023-02-17T19:20:45.976Z,979.23
2023-02-17T19:25:45.918Z,979.36
2023-02-17T19:30:46.012Z,979.44
2023-02-17T19:35:45.806Z,979.34
2023-02-17T19:40:45.753Z,979.42
2023-02-17T19:45:45.678Z,979.55
2023-02-17T19:50:45.642Z,979.63
2023-02-17T19:55:45.600Z,979.64
2023-02-17T20:00:45.485Z,979.61
2023-02-17T20:05:45.441Z,979.67
2023-02-17T20:10:45.368Z,979.77
2023-02-17T20:15:45.368Z,979.81
2023-02-17T20:20:45.299Z,979.85
2023-02-17T20:25:45.168Z,979.85
2023-02-17T20:30:45.149Z,979.80
2023-02-17T20:35:45.058Z,979.70
2023-02-17T20:40:44.997Z,979.66
2023-02-17T20:45:44.939Z,979.66
2023-02-17T20:50:44.912Z,979.67
2023-02-17T20:55:44.848Z,979.63
2023-02-17T21:00:44.765Z,979.73
2023-02-17T21:05:44.729Z,979.71
2023-02-17T21:10:44.701Z,979.73
2023-02-17T21:15:45.098Z,979.72
2023-02-17T21:20:44.545Z,979.71
2023-02-17T21:25:44.435Z,979.72
2023-02-17T21:30:44.382Z,979.75
2023-02-17T21:35:44.319Z,979.78
2023-02-17T21:40:44.243Z,979.81
2023-02-17T21:45:44.212Z,979.83
2023-02-17T21:50:44.129Z,979.92
2023-02-17T21:55:44.054Z,979.96
2023-02-17T22:00:44.016Z,980.05
2023-02-17T22:05:43.994Z,980.06
2023-02-17T22:10:43.865Z,980.07
2023-02-17T22:15:43.810Z,980.12
2023-02-17T22:20:43.783Z,980.11
2023-02-17T22:25:43.695Z,980.11
2023-02-17T22:30:43.677Z,980.13
2023-02-17T22:35:43.597Z,980.15
2023-02-17T22:40:43.587Z,980.13
2023-02-17T22:45:43.501Z,980.07
2023-02-17T22:50:43.387Z,980.07
2023-02-17T22:55:43.347Z,980.17
2023-02-17T23:00:43.345Z,980.22
2023-02-17T23:05:43.292Z,980.15
2023-02-17T23:10:43.147Z,980.22
2023-02-17T23:15:43.097Z,980.19
2023-02-17T23:20:43.036Z,980.23
2023-02-17T23:25:42.946Z,980.13
2023-02-17T23:30:42.936Z,980.15
2023-02-17T23:35:42.894Z,980.12
2023-02-17T23:40:42.755Z,980.22
2023-02-17T23:45:42.790Z,980.16
2023-02-17T23:50:42.634Z,980.21
2023-02-17T23:55:42.571Z,980.22
